Time;durP1;ratioP1;P1;durP2;ratioP2;P2;SDS_P1;SDS_P2;PMS_P1;PMS_P2;Temp;Humidity;BMP_temperature;BMP_pressure;BME280_temperature;BME280_humidity;BME280_pressure;Samples;Min_cycle;Max_cycle;Signal;HPM_P1;HPM_P2
2022/12/28 00:01:18;;;;;;;0.60;0.60;;;6.50;99.90;;;;;;4960056;28;20574;-81
2022/12/28 00:03:44;;;;;;;0.60;0.60;;;6.50;99.90;;;;;;4922702;28;20049;-82
2022/12/28 00:06:10;;;;;;;0.65;0.65;;;6.40;99.90;;;;;;4926608;28;20053;-82
2022/12/28 00:08:36;;;;;;;0.60;0.60;;;6.50;99.90;;;;;;4946010;28;20316;-81
2022/12/28 00:11:14;;;;;;;0.60;0.60;;;6.40;99.90;;;;;;4942855;28;20258;-84
2022/12/28 00:13:40;;;;;;;0.60;0.60;;;6.40;99.90;;;;;;4944651;28;20049;-82
2022/12/28 00:16:26;;;;;;;0.60;0.60;;;6.40;99.90;;;;;;4926408;28;20443;-83
2022/12/28 00:18:53;;;;;;;0.60;0.60;;;6.40;99.90;;;;;;4956023;28;20140;-82
2022/12/28 00:21:19;;;;;;;0.60;0.60;;;6.40;99.90;;;;;;4955787;28;20052;-83
2022/12/28 00:23:51;;;;;;;0.60;0.60;;;6.40;99.90;;;;;;4957631;28;20099;-80
2022/12/28 00:26:18;;;;;;;0.60;0.60;;;6.40;99.90;;;;;;4951121;28;20416;-81
2022/12/28 00:28:43;;;;;;;0.60;0.60;;;6.40;99.90;;;;;;4942934;28;20990;-83
2022/12/28 00:31:11;;;;;;;0.70;0.70;;;6.40;99.90;;;;;;4911574;28;20057;-82
2022/12/28 00:33:38;;;;;;;0.70;0.70;;;6.30;99.90;;;;;;4950190;28;20099;-82
2022/12/28 00:36:04;;;;;;;0.60;0.60;;;6.40;99.90;;;;;;4940500;28;20085;-83
2022/12/28 00:38:31;;;;;;;0.60;0.60;;;6.40;99.90;;;;;;4943707;28;20087;-82
2022/12/28 00:40:58;;;;;;;0.60;0.60;;;6.40;99.90;;;;;;4934554;28;20695;-81
2022/12/28 00:43:24;;;;;;;0.60;0.60;;;6.30;99.90;;;;;;4935430;28;20084;-83
2022/12/28 00:45:50;;;;;;;0.60;0.60;;;6.40;99.90;;;;;;4943572;28;20415;-82
2022/12/28 00:48:16;;;;;;;0.68;0.68;;;6.40;99.90;;;;;;4944139;28;20053;-82
2022/12/28 00:50:43;;;;;;;0.60;0.60;;;6.40;99.90;;;;;;4930154;28;20492;-83
2022/12/28 00:53:09;;;;;;;0.60;0.60;;;6.30;99.90;;;;;;4940463;28;20049;-83
2022/12/28 00:55:35;;;;;;;0.60;0.60;;;6.40;99.90;;;;;;4924110;28;20045;-82
2022/12/28 00:58:02;;;;;;;0.68;0.68;;;6.40;99.90;;;;;;4931545;28;20192;-81
2022/12/28 01:00:28;;;;;;;0.70;0.70;;;6.50;99.90;;;;;;4971793;28;20060;-82
2022/12/28 01:02:54;;;;;;;0.60;0.60;;;6.40;99.90;;;;;;4924537;28;20220;-82
2022/12/28 01:05:21;;;;;;;0.60;0.60;;;6.50;99.90;;;;;;4938104;28;20077;-82
2022/12/28 01:07:47;;;;;;;0.60;0.60;;;6.50;99.90;;;;;;4939368;28;20538;-82
2022/12/28 01:10:13;;;;;;;0.60;0.60;;;6.60;99.90;;;;;;4945334;28;20052;-81
2022/12/28 01:12:39;;;;;;;0.60;0.60;;;6.50;99.90;;;;;;4943409;28;20453;-82
2022/12/28 01:15:07;;;;;;;0.60;0.60;;;6.50;99.90;;;;;;4937941;28;20152;-83
2022/12/28 01:17:33;;;;;;;0.60;0.60;;;6.50;99.90;;;;;;4940961;28;20135;-83
2022/12/28 01:19:59;;;;;;;0.60;0.60;;;6.60;99.90;;;;;;4931833;28;20088;-81
2022/12/28 01:22:26;;;;;;;0.60;0.60;;;6.50;99.90;;;;;;4947090;28;20049;-84
2022/12/28 01:24:52;;;;;;;0.60;0.60;;;6.60;99.90;;;;;;4942518;28;20053;-83
2022/12/28 01:27:17;;;;;;;0.60;0.60;;;6.60;99.90;;;;;;4926263;28;20429;-83
2022/12/28 01:29:44;;;;;;;0.60;0.60;;;6.70;99.90;;;;;;4945698;28;20045;-82
2022/12/28 01:32:10;;;;;;;0.60;0.60;;;6.60;99.90;;;;;;4949237;28;22054;-81
2022/12/28 01:34:36;;;;;;;0.70;0.70;;;6.50;99.90;;;;;;4938483;28;20411;-82
2022/12/28 01:37:02;;;;;;;0.60;0.60;;;6.60;99.90;;;;;;4944940;28;20057;-83
2022/12/28 01:39:28;;;;;;;0.60;0.60;;;6.60;99.90;;;;;;4951244;28;20524;-84
2022/12/28 01:41:55;;;;;;;0.60;0.60;;;6.60;99.90;;;;;;4926039;28;21071;-83
2022/12/28 01:44:23;;;;;;;0.60;0.60;;;6.60;99.90;;;;;;4929654;28;20720;-80
2022/12/28 01:46:52;;;;;;;0.70;0.70;;;6.60;99.90;;;;;;4945634;28;20048;-80
2022/12/28 01:49:30;;;;;;;0.60;0.60;;;6.70;99.90;;;;;;4950395;28;20053;-83
2022/12/28 01:52:15;;;;;;;0.60;0.60;;;6.70;99.90;;;;;;4947657;28;20870;-82
2022/12/28 01:54:52;;;;;;;0.60;0.60;;;6.70;99.90;;;;;;4945402;28;20084;-83
2022/12/28 01:57:20;;;;;;;0.60;0.60;;;6.60;99.90;;;;;;4921309;28;20056;-81
2022/12/28 01:59:52;;;;;;;0.60;0.60;;;6.60;99.90;;;;;;4942491;28;20057;-84
2022/12/28 02:02:20;;;;;;;0.60;0.60;;;6.70;99.90;;;;;;4926620;28;20833;-82
2022/12/28 02:04:46;;;;;;;0.60;0.60;;;6.70;99.90;;;;;;4948402;28;20289;-81
2022/12/28 02:07:19;;;;;;;0.60;0.60;;;6.70;99.90;;;;;;4942055;28;20507;-82
2022/12/28 02:09:46;;;;;;;0.70;0.70;;;6.80;99.90;;;;;;4933256;28;21017;-83
2022/12/28 02:12:15;;;;;;;0.60;0.60;;;6.80;99.90;;;;;;4941770;28;20092;-82
2022/12/28 02:14:43;;;;;;;0.60;0.60;;;6.80;99.90;;;;;;4947980;28;20045;-84
2022/12/28 02:17:10;;;;;;;0.60;0.60;;;6.80;99.90;;;;;;4952732;28;20152;-82
2022/12/28 02:19:45;;;;;;;0.60;0.60;;;6.90;99.90;;;;;;4935854;28;20056;-84
2022/12/28 02:22:48;;;;;;;0.60;0.60;;;6.90;99.90;;;;;;4944397;28;20124;-84
2022/12/28 02:25:51;;;;;;;0.60;0.60;;;6.80;99.90;;;;;;4945683;28;20068;-83
2022/12/28 02:28:39;;;;;;;0.60;0.60;;;6.80;99.90;;;;;;4937300;28;20075;-82
2022/12/28 02:31:32;;;;;;;0.70;0.70;;;6.80;99.90;;;;;;4941172;28;20557;-82
2022/12/28 02:34:00;;;;;;;0.60;0.60;;;6.90;99.90;;;;;;4944490;28;20088;-80
2022/12/28 02:36:31;;;;;;;0.60;0.60;;;6.90;99.90;;;;;;4947390;28;20060;-81
2022/12/28 02:39:13;;;;;;;0.60;0.60;;;6.90;99.90;;;;;;4944465;28;20060;-85
2022/12/28 02:41:41;;;;;;;0.60;0.60;;;6.90;99.90;;;;;;4918859;28;20084;-82
2022/12/28 02:44:07;;;;;;;0.60;0.60;;;6.90;99.90;;;;;;4942904;28;20451;-82
2022/12/28 02:52:26;;;;;;;0.60;0.60;;;7.00;99.90;;;;;;4945141;28;20512;-83
2022/12/28 02:58:22;;;;;;;0.60;0.60;;;7.00;99.90;;;;;;4941650;28;20499;-82
2022/12/28 03:00:56;;;;;;;0.63;0.63;;;7.10;99.90;;;;;;4946251;28;20042;-82
2022/12/28 03:03:31;;;;;;;0.60;0.60;;;7.20;99.90;;;;;;4946768;28;20659;-82
2022/12/28 03:09:21;;;;;;;0.60;0.60;;;7.10;99.90;;;;;;4946169;28;20410;-83
2022/12/28 03:12:18;;;;;;;0.60;0.60;;;7.10;99.90;;;;;;4950868;28;20053;-87
2022/12/28 03:14:49;;;;;;;0.60;0.60;;;7.10;99.90;;;;;;4947320;28;20077;-82
2022/12/28 03:31:23;;;;;;;0.70;0.70;;;7.30;99.90;;;;;;4948243;28;20694;-82
2022/12/28 03:33:53;;;;;;;0.60;0.60;;;7.40;99.90;;;;;;4952081;28;20108;-83
2022/12/28 03:36:27;;;;;;;0.60;0.60;;;7.30;99.90;;;;;;4943814;28;20164;-83
2022/12/28 03:39:10;;;;;;;0.60;0.60;;;7.40;99.90;;;;;;4950418;28;20128;-84
2022/12/28 03:45:18;;;;;;;0.60;0.60;;;7.50;99.90;;;;;;4925559;28;20068;-83
2022/12/28 03:47:46;;;;;;;0.70;0.70;;;7.50;99.90;;;;;;4946684;28;20049;-84
2022/12/28 03:50:13;;;;;;;0.60;0.60;;;7.50;99.90;;;;;;4945549;28;21062;-81
2022/12/28 03:52:39;;;;;;;0.60;0.60;;;7.50;99.90;;;;;;4946160;28;20057;-82
2022/12/28 03:55:05;;;;;;;0.60;0.60;;;7.60;99.90;;;;;;4947946;28;20048;-84
2022/12/28 03:57:31;;;;;;;0.60;0.60;;;7.50;99.90;;;;;;4950482;28;20044;-83
2022/12/28 03:59:57;;;;;;;0.60;0.60;;;7.50;99.90;;;;;;4933218;28;20049;-84
2022/12/28 04:02:23;;;;;;;0.60;0.60;;;7.50;99.90;;;;;;4944916;28;20053;-86
2022/12/28 04:04:49;;;;;;;0.60;0.60;;;7.50;99.90;;;;;;4942933;28;20553;-84
2022/12/28 04:07:14;;;;;;;0.60;0.60;;;7.40;99.90;;;;;;4943544;28;20045;-84
2022/12/28 04:09:40;;;;;;;0.60;0.60;;;7.50;99.90;;;;;;4926634;28;20049;-83
2022/12/28 04:12:06;;;;;;;0.60;0.60;;;7.50;99.90;;;;;;4945812;28;20045;-86
2022/12/28 04:14:32;;;;;;;0.60;0.60;;;7.50;99.90;;;;;;4930197;28;20635;-83
2022/12/28 04:16:58;;;;;;;0.60;0.60;;;7.60;99.90;;;;;;4943397;28;20912;-83
2022/12/28 04:19:24;;;;;;;0.60;0.60;;;7.50;99.90;;;;;;4949840;28;20470;-84
2022/12/28 04:21:50;;;;;;;0.60;0.60;;;7.60;99.90;;;;;;4928468;28;20627;-87
2022/12/28 04:24:16;;;;;;;0.70;0.70;;;7.50;99.90;;;;;;4952671;28;20045;-83
2022/12/28 04:26:42;;;;;;;0.60;0.60;;;7.50;99.90;;;;;;4948944;28;20591;-84
2022/12/28 04:29:08;;;;;;;0.60;0.60;;;7.60;99.90;;;;;;4949210;28;20128;-85
2022/12/28 04:31:34;;;;;;;0.60;0.60;;;7.60;99.90;;;;;;4950048;28;20612;-84
2022/12/28 04:34:00;;;;;;;0.60;0.60;;;7.60;99.90;;;;;;4953526;28;21017;-82
2022/12/28 04:36:25;;;;;;;0.60;0.60;;;7.60;99.90;;;;;;4939065;28;20064;-83
2022/12/28 04:38:51;;;;;;;0.70;0.70;;;7.60;99.90;;;;;;4939422;28;20056;-84
2022/12/28 04:41:17;;;;;;;0.60;0.60;;;7.60;99.90;;;;;;4920250;28;20048;-85
2022/12/28 04:43:43;;;;;;;0.60;0.60;;;7.50;99.90;;;;;;4945819;28;20533;-84
2022/12/28 04:46:12;;;;;;;0.60;0.60;;;7.60;99.90;;;;;;4941443;28;20080;-84
2022/12/28 04:48:39;;;;;;;0.70;0.70;;;7.70;99.90;;;;;;4949490;28;20524;-84
2022/12/28 04:51:11;;;;;;;0.60;0.60;;;7.70;99.90;;;;;;4923740;28;20045;-85
2022/12/28 04:53:40;;;;;;;0.60;0.60;;;7.70;99.90;;;;;;4925253;28;20052;-85
2022/12/28 04:56:08;;;;;;;0.60;0.60;;;7.60;99.90;;;;;;4956327;28;20055;-85
2022/12/28 04:58:33;;;;;;;0.60;0.60;;;7.80;99.90;;;;;;4946623;28;20053;-83
2022/12/28 05:01:11;;;;;;;0.60;0.60;;;7.90;99.90;;;;;;4946703;28;20069;-83
2022/12/28 05:03:39;;;;;;;0.60;0.60;;;7.90;99.90;;;;;;4945505;28;20660;-84
2022/12/28 05:06:09;;;;;;;0.60;0.60;;;7.90;99.90;;;;;;4930035;28;20495;-85
2022/12/28 05:08:36;;;;;;;0.60;0.60;;;8.00;99.90;;;;;;4951387;28;20045;-85
2022/12/28 05:11:05;;;;;;;0.50;0.50;;;7.90;99.90;;;;;;4947998;28;20042;-85
2022/12/28 05:13:32;;;;;;;0.60;0.60;;;7.90;99.90;;;;;;4931677;28;20522;-86
2022/12/28 05:16:12;;;;;;;0.60;0.60;;;8.00;99.90;;;;;;4921851;28;20061;-83
2022/12/28 05:18:38;;;;;;;0.60;0.60;;;8.00;99.90;;;;;;4945499;28;20156;-84
2022/12/28 05:21:07;;;;;;;0.60;0.60;;;8.00;99.90;;;;;;4940902;28;20049;-83
2022/12/28 05:23:35;;;;;;;0.60;0.60;;;8.00;99.90;;;;;;4951159;28;20043;-84
2022/12/28 05:26:02;;;;;;;0.50;0.50;;;8.10;99.90;;;;;;4932684;28;20040;-86
2022/12/28 05:28:28;;;;;;;0.60;0.60;;;8.10;99.90;;;;;;4952511;28;20055;-85
2022/12/28 05:30:59;;;;;;;0.60;0.60;;;8.10;99.90;;;;;;4945685;28;20045;-84
2022/12/28 05:33:25;;;;;;;0.60;0.60;;;8.20;99.90;;;;;;4940679;28;20370;-85
2022/12/28 05:35:51;;;;;;;0.60;0.60;;;8.20;99.90;;;;;;4949137;28;20057;-86
2022/12/28 05:38:17;;;;;;;0.50;0.50;;;8.20;99.90;;;;;;4954159;28;20059;-84
2022/12/28 05:40:43;;;;;;;0.60;0.60;;;8.20;99.90;;;;;;4913798;28;20131;-85
2022/12/28 05:43:09;;;;;;;0.60;0.60;;;8.20;99.90;;;;;;4946019;28;20358;-85
2022/12/28 05:45:35;;;;;;;0.60;0.60;;;8.30;99.90;;;;;;4940264;28;20045;-88
2022/12/28 05:48:00;;;;;;;0.60;0.60;;;8.30;99.90;;;;;;4961755;28;20678;-86
2022/12/28 05:50:29;;;;;;;0.60;0.60;;;8.40;99.90;;;;;;4919223;28;20429;-87
2022/12/28 05:52:56;;;;;;;0.60;0.60;;;8.40;99.90;;;;;;4948581;28;20110;-84
2022/12/28 05:55:22;;;;;;;0.60;0.60;;;8.40;99.90;;;;;;4933342;28;20048;-85
2022/12/28 05:57:48;;;;;;;0.60;0.60;;;8.40;99.90;;;;;;4922104;28;20501;-85
2022/12/28 06:00:15;;;;;;;0.50;0.50;;;8.30;99.90;;;;;;4925122;28;20140;-86
2022/12/28 06:02:44;;;;;;;0.50;0.50;;;8.50;99.90;;;;;;4948277;28;20052;-85
2022/12/28 06:05:10;;;;;;;0.60;0.60;;;8.50;99.90;;;;;;4951479;28;20136;-86
2022/12/28 06:07:36;;;;;;;0.60;0.60;;;8.40;99.90;;;;;;4932635;28;20495;-85
2022/12/28 06:10:02;;;;;;;0.60;0.60;;;8.50;99.90;;;;;;4949830;28;20036;-85
2022/12/28 06:12:28;;;;;;;0.60;0.60;;;8.50;99.90;;;;;;4941553;28;20654;-83
2022/12/28 06:14:53;;;;;;;0.50;0.50;;;8.50;99.90;;;;;;4944242;28;21157;-85
2022/12/28 06:17:19;;;;;;;0.50;0.50;;;8.60;99.90;;;;;;4951655;28;20049;-86
2022/12/28 06:19:45;;;;;;;0.60;0.60;;;8.50;99.90;;;;;;4934781;28;20084;-85
2022/12/28 06:22:11;;;;;;;0.60;0.60;;;8.60;99.90;;;;;;4934464;28;20394;-82
2022/12/28 06:24:37;;;;;;;0.50;0.50;;;8.70;99.90;;;;;;4952055;28;20046;-84
2022/12/28 06:27:03;;;;;;;0.50;0.50;;;8.70;99.90;;;;;;4918799;28;20052;-84
2022/12/28 06:29:29;;;;;;;0.60;0.60;;;8.60;99.90;;;;;;4945723;28;20605;-85
2022/12/28 06:31:55;;;;;;;3.90;3.70;;;8.60;99.90;;;;;;4916203;28;20049;-83
2022/12/28 06:34:23;;;;;;;0.60;0.60;;;8.70;99.90;;;;;;4930278;28;20552;-84
2022/12/28 06:36:51;;;;;;;0.60;0.60;;;8.70;99.90;;;;;;4948685;28;20507;-85
2022/12/28 06:39:17;;;;;;;0.60;0.60;;;8.80;99.90;;;;;;4978007;28;20672;-84
2022/12/28 06:41:43;;;;;;;0.60;0.60;;;8.80;99.90;;;;;;4927739;28;20270;-83
2022/12/28 06:44:11;;;;;;;0.60;0.60;;;8.80;99.90;;;;;;4958652;28;20068;-85
2022/12/28 06:46:38;;;;;;;0.60;0.60;;;8.80;99.90;;;;;;4953382;28;20075;-86
2022/12/28 06:49:03;;;;;;;0.60;0.60;;;8.80;99.90;;;;;;4949606;28;20041;-85
2022/12/28 06:51:34;;;;;;;0.60;0.60;;;8.80;99.90;;;;;;4946388;28;20593;-85
2022/12/28 06:54:01;;;;;;;0.52;0.52;;;8.80;99.90;;;;;;4967035;28;20745;-87
2022/12/28 06:56:32;;;;;;;0.50;0.50;;;8.80;99.90;;;;;;4935236;28;20924;-85
2022/12/28 06:58:58;;;;;;;0.60;0.60;;;8.80;99.90;;;;;;4954450;28;20514;-83
2022/12/28 07:01:27;;;;;;;0.60;0.60;;;8.80;99.90;;;;;;4934438;28;20436;-83
2022/12/28 07:03:54;;;;;;;0.60;0.60;;;9.00;99.90;;;;;;4947677;28;20422;-87
2022/12/28 07:06:22;;;;;;;0.60;0.60;;;8.90;99.90;;;;;;4938278;28;20068;-86
2022/12/28 07:08:49;;;;;;;0.60;0.60;;;9.00;99.90;;;;;;4933534;28;20053;-84
2022/12/28 07:11:24;;;;;;;0.60;0.60;;;9.00;99.90;;;;;;4919777;28;20083;-84
2022/12/28 07:13:49;;;;;;;0.60;0.60;;;9.00;99.90;;;;;;4931778;28;20854;-83
2022/12/28 07:16:20;;;;;;;0.60;0.60;;;9.00;99.90;;;;;;4948856;28;20057;-86
2022/12/28 07:18:46;;;;;;;0.60;0.60;;;9.00;99.90;;;;;;4938460;28;20053;-83
2022/12/28 07:21:40;;;;;;;0.60;0.60;;;9.00;99.90;;;;;;4952024;28;20049;-85
2022/12/28 07:24:06;;;;;;;0.60;0.60;;;9.00;99.90;;;;;;4937644;28;20057;-86
2022/12/28 07:26:35;;;;;;;0.60;0.60;;;9.10;99.90;;;;;;4954136;28;20511;-85
2022/12/28 07:29:02;;;;;;;0.50;0.50;;;9.10;99.90;;;;;;4953252;28;20072;-84
2022/12/28 07:31:31;;;;;;;0.60;0.60;;;9.20;99.90;;;;;;4933923;28;20045;-83
2022/12/28 07:33:58;;;;;;;0.60;0.60;;;9.20;99.90;;;;;;4945537;28;20068;-84
2022/12/28 07:36:25;;;;;;;0.50;0.50;;;9.20;99.90;;;;;;4936839;28;20508;-84
2022/12/28 07:38:53;;;;;;;0.60;0.60;;;9.30;99.90;;;;;;4948258;28;20767;-84
2022/12/28 07:41:22;;;;;;;0.60;0.60;;;9.10;99.90;;;;;;4949355;28;20078;-83
2022/12/28 07:43:50;;;;;;;0.50;0.50;;;9.10;99.90;;;;;;4932997;28;20604;-84
2022/12/28 07:46:23;;;;;;;0.60;0.60;;;9.20;99.90;;;;;;4953703;28;20080;-84
2022/12/28 07:48:50;;;;;;;0.60;0.60;;;9.20;99.90;;;;;;4968532;28;20056;-84
2022/12/28 07:51:20;;;;;;;0.60;0.60;;;9.20;99.90;;;;;;4948560;28;20290;-86
2022/12/28 07:53:47;;;;;;;0.60;0.60;;;9.30;99.90;;;;;;4927954;28;20055;-85
2022/12/28 07:56:14;;;;;;;0.60;0.60;;;9.30;99.90;;;;;;4944946;28;20051;-85
2022/12/28 07:58:40;;;;;;;0.60;0.60;;;9.30;99.90;;;;;;4955200;28;20053;-83
2022/12/28 08:01:09;;;;;;;0.60;0.60;;;9.30;99.90;;;;;;4942397;28;20513;-85
2022/12/28 08:03:35;;;;;;;0.60;0.60;;;9.30;99.90;;;;;;4933951;28;20034;-85
2022/12/28 08:06:10;;;;;;;0.60;0.60;;;9.30;99.90;;;;;;4938363;28;20084;-85
2022/12/28 08:08:41;;;;;;;0.60;0.60;;;9.40;99.90;;;;;;4947410;28;20119;-84
2022/12/28 08:11:10;;;;;;;0.60;0.60;;;9.30;99.90;;;;;;4937822;28;20049;-86
2022/12/28 08:13:38;;;;;;;0.60;0.60;;;9.30;99.90;;;;;;4930501;28;20446;-86
2022/12/28 08:16:04;;;;;;;0.60;0.60;;;9.40;99.90;;;;;;4938911;28;20076;-88
2022/12/28 08:18:30;;;;;;;0.60;0.60;;;9.40;99.90;;;;;;4959408;28;20459;-84
2022/12/28 08:21:05;;;;;;;0.60;0.60;;;9.40;99.90;;;;;;4952630;28;20044;-83
2022/12/28 08:23:32;;;;;;;0.60;0.60;;;9.40;99.90;;;;;;4949483;28;20494;-85
2022/12/28 08:26:09;;;;;;;0.50;0.50;;;9.40;99.90;;;;;;4931849;28;20425;-86
2022/12/28 08:28:36;;;;;;;0.60;0.60;;;9.50;99.90;;;;;;4927968;28;20083;-84
2022/12/28 08:31:14;;;;;;;0.60;0.60;;;9.40;99.90;;;;;;4954299;28;20057;-87
2022/12/28 08:33:40;;;;;;;0.50;0.50;;;9.50;99.90;;;;;;4947048;28;20491;-85
2022/12/28 08:36:08;;;;;;;0.60;0.60;;;9.50;99.90;;;;;;4944251;28;20815;-84
2022/12/28 08:38:34;;;;;;;0.50;0.50;;;9.40;99.90;;;;;;4947210;28;20050;-83
2022/12/28 08:41:03;;;;;;;0.50;0.50;;;9.50;99.90;;;;;;4940889;28;20049;-85
2022/12/28 08:43:30;;;;;;;0.60;0.60;;;9.50;99.90;;;;;;4942682;28;20053;-86
2022/12/28 08:46:09;;;;;;;0.60;0.60;;;9.40;99.90;;;;;;4958178;28;20049;-85
2022/12/28 08:48:35;;;;;;;0.60;0.60;;;9.40;99.90;;;;;;4951345;28;20098;-86
2022/12/28 08:51:13;;;;;;;0.65;0.65;;;9.60;99.90;;;;;;4932118;28;20963;-85
2022/12/28 08:53:40;;;;;;;0.57;0.57;;;9.50;99.90;;;;;;4943259;28;20276;-86
2022/12/28 08:56:09;;;;;;;0.60;0.60;;;9.50;99.90;;;;;;4945198;28;20083;-86
2022/12/28 08:58:35;;;;;;;0.50;0.50;;;9.50;99.90;;;;;;4944735;28;20087;-83
2022/12/28 09:01:05;;;;;;;0.60;0.60;;;9.60;99.90;;;;;;4927661;28;20048;-83
2022/12/28 09:03:33;;;;;;;0.60;0.60;;;9.60;99.90;;;;;;4944517;28;21740;-86
2022/12/28 09:06:02;;;;;;;0.50;0.50;;;9.60;99.90;;;;;;4928918;28;20055;-83
2022/12/28 09:08:28;;;;;;;0.60;0.60;;;9.60;99.90;;;;;;4944511;28;20517;-84
2022/12/28 09:10:57;;;;;;;0.50;0.50;;;9.60;99.90;;;;;;4943495;28;20040;-84
2022/12/28 09:13:24;;;;;;;0.60;0.60;;;9.60;99.90;;;;;;4951154;28;20341;-87
2022/12/28 09:16:08;;;;;;;0.60;0.60;;;9.60;99.90;;;;;;4936424;28;20047;-85
2022/12/28 09:18:34;;;;;;;0.50;0.50;;;9.60;99.90;;;;;;4949055;28;20048;-84
2022/12/28 09:21:08;;;;;;;0.50;0.50;;;9.60;99.90;;;;;;4926598;28;20801;-86
2022/12/28 09:23:35;;;;;;;0.60;0.60;;;9.70;99.90;;;;;;4955474;28;20041;-84
2022/12/28 09:26:15;;;;;;;0.50;0.50;;;9.80;99.90;;;;;;4941133;28;20147;-84
2022/12/28 09:28:59;;;;;;;0.60;0.60;;;9.70;99.90;;;;;;4954459;28;20049;-84
2022/12/28 09:31:28;;;;;;;0.57;0.57;;;9.80;99.90;;;;;;4955575;28;20057;-85
2022/12/28 09:33:59;;;;;;;0.50;0.50;;;9.80;99.90;;;;;;4953293;28;20487;-83
2022/12/28 09:36:31;;;;;;;0.60;0.60;;;9.90;99.90;;;;;;4948796;28;20487;-83
2022/12/28 09:38:58;;;;;;;0.50;0.50;;;9.90;99.90;;;;;;4940881;28;20163;-84
2022/12/28 09:41:32;;;;;;;0.50;0.50;;;9.90;99.90;;;;;;4947753;28;20132;-86
2022/12/28 09:44:39;;;;;;;0.50;0.50;;;9.80;99.90;;;;;;4930530;28;20600;-85
2022/12/28 09:47:11;;;;;;;0.50;0.50;;;9.90;99.90;;;;;;4936570;28;20084;-86
2022/12/28 09:49:46;;;;;;;0.50;0.50;;;9.90;99.90;;;;;;4948321;28;20244;-85
2022/12/28 09:52:39;;;;;;;0.50;0.50;;;9.80;99.90;;;;;;4971404;28;20244;-83
2022/12/28 09:55:14;;;;;;;0.50;0.50;;;10.00;99.90;;;;;;4947410;28;20052;-87
2022/12/28 09:57:59;;;;;;;0.50;0.50;;;9.90;99.90;;;;;;4946633;28;20045;-83
2022/12/28 10:00:43;;;;;;;0.50;0.50;;;10.00;99.90;;;;;;4936291;28;20060;-85
2022/12/28 10:03:15;;;;;;;0.50;0.50;;;9.90;99.90;;;;;;4948239;28;20738;-84
2022/12/28 10:05:41;;;;;;;0.60;0.60;;;10.10;99.90;;;;;;4931812;28;20569;-85
2022/12/28 10:08:12;;;;;;;0.60;0.60;;;10.00;99.90;;;;;;4930401;28;20392;-85
2022/12/28 10:10:40;;;;;;;0.60;0.60;;;10.10;99.90;;;;;;4950532;28;20053;-82
2022/12/28 10:13:38;;;;;;;0.50;0.50;;;10.10;99.90;;;;;;4962639;28;20107;-84
2022/12/28 10:16:06;;;;;;;0.60;0.60;;;10.00;99.90;;;;;;4951314;28;20060;-83
2022/12/28 10:18:34;;;;;;;0.50;0.50;;;10.00;99.90;;;;;;4956421;28;20053;-84
2022/12/28 10:21:00;;;;;;;0.50;0.50;;;10.10;99.90;;;;;;4965772;28;20041;-84
2022/12/28 10:23:29;;;;;;;0.60;0.60;;;10.10;99.90;;;;;;4962210;28;20457;-84
2022/12/28 10:25:57;;;;;;;0.50;0.50;;;10.10;99.90;;;;;;4964345;28;20161;-85
2022/12/28 10:28:29;;;;;;;0.50;0.50;;;10.10;99.90;;;;;;4960568;28;20241;-85
2022/12/28 10:31:07;;;;;;;0.50;0.50;;;10.10;99.90;;;;;;4964357;28;20056;-87
2022/12/28 10:33:40;;;;;;;0.50;0.50;;;10.20;99.90;;;;;;4948126;28;20056;-85
2022/12/28 10:36:12;;;;;;;0.60;0.60;;;10.20;99.90;;;;;;4942603;28;20060;-86
2022/12/28 10:38:41;;;;;;;0.50;0.50;;;10.20;99.90;;;;;;4950427;28;20052;-84
2022/12/28 10:41:13;;;;;;;0.60;0.60;;;10.10;99.90;;;;;;4949206;28;20049;-85
2022/12/28 10:43:41;;;;;;;0.60;0.60;;;10.30;99.90;;;;;;4972223;28;20053;-85
2022/12/28 10:46:18;;;;;;;0.60;0.60;;;10.20;99.90;;;;;;4949270;28;20103;-84
2022/12/28 10:48:57;;;;;;;0.60;0.60;;;10.10;99.90;;;;;;4946396;28;20122;-84
2022/12/28 10:51:25;;;;;;;0.55;0.55;;;10.20;99.90;;;;;;4942813;28;20089;-82
2022/12/28 10:53:56;;;;;;;0.60;0.60;;;10.10;99.90;;;;;;4952531;28;20890;-85
2022/12/28 10:56:28;;;;;;;0.50;0.50;;;10.20;99.90;;;;;;4950147;28;20060;-86
2022/12/28 10:59:14;;;;;;;0.60;0.60;;;10.20;99.90;;;;;;4948369;28;20370;-83
2022/12/28 11:01:41;;;;;;;0.50;0.50;;;10.30;99.90;;;;;;4943490;28;20407;-84
2022/12/28 11:04:19;;;;;;;0.50;0.50;;;10.20;99.90;;;;;;4954858;28;20046;-84
2022/12/28 11:06:54;;;;;;;0.50;0.50;;;10.30;99.90;;;;;;4942559;28;20053;-84
2022/12/28 11:09:23;;;;;;;0.60;0.60;;;10.20;99.90;;;;;;4932478;28;20143;-84
2022/12/28 11:11:51;;;;;;;0.50;0.50;;;10.20;99.90;;;;;;4949417;28;20511;-84
2022/12/28 11:14:25;;;;;;;0.50;0.50;;;10.20;99.90;;;;;;4939831;28;20045;-83
2022/12/28 11:16:52;;;;;;;0.50;0.50;;;10.20;99.90;;;;;;4953475;28;20360;-82
2022/12/28 11:19:19;;;;;;;0.57;0.57;;;10.20;99.90;;;;;;4954135;28;20120;-82
2022/12/28 11:21:46;;;;;;;0.60;0.60;;;10.20;99.90;;;;;;4960368;28;20045;-84
2022/12/28 11:24:16;;;;;;;0.50;0.50;;;10.30;99.90;;;;;;4948398;28;20072;-88
2022/12/28 11:26:48;;;;;;;0.50;0.50;;;10.20;99.90;;;;;;4957253;28;20067;-84
2022/12/28 11:29:16;;;;;;;0.60;0.60;;;10.30;99.90;;;;;;4941844;28;21371;-84
2022/12/28 11:31:52;;;;;;;0.60;0.60;;;10.30;99.90;;;;;;4946553;28;20739;-84
2022/12/28 11:34:24;;;;;;;0.50;0.50;;;10.20;99.90;;;;;;4957396;28;20049;-85
2022/12/28 11:36:51;;;;;;;0.60;0.60;;;10.30;99.90;;;;;;4955820;28;20745;-85
2022/12/28 11:39:26;;;;;;;0.60;0.60;;;10.40;99.90;;;;;;4951998;28;20282;-84
2022/12/28 11:41:56;;;;;;;0.60;0.60;;;10.20;99.90;;;;;;4956146;28;20049;-85
2022/12/28 11:44:28;;;;;;;0.50;0.50;;;10.30;99.90;;;;;;4949653;28;20061;-85
2022/12/28 11:47:18;;;;;;;0.60;0.60;;;10.40;99.90;;;;;;4943459;28;20206;-84
2022/12/28 11:49:46;;;;;;;0.50;0.50;;;10.40;99.90;;;;;;4952470;28;20501;-87
2022/12/28 11:52:16;;;;;;;0.60;0.60;;;10.40;99.90;;;;;;4949402;28;20088;-85
2022/12/28 11:55:20;;;;;;;0.60;0.60;;;10.40;99.90;;;;;;4954892;28;20037;-85
2022/12/28 11:57:46;;;;;;;0.60;0.60;;;10.40;99.90;;;;;;4958650;28;20521;-85
2022/12/28 12:00:18;;;;;;;0.50;0.50;;;10.30;99.90;;;;;;4950584;28;20083;-83
2022/12/28 12:03:01;;;;;;;0.60;0.60;;;10.40;99.90;;;;;;4971975;28;20085;-85
2022/12/28 12:05:36;;;;;;;0.60;0.60;;;10.30;99.90;;;;;;4947397;28;20102;-86
2022/12/28 12:08:22;;;;;;;0.60;0.60;;;10.30;99.90;;;;;;4950662;28;20060;-85
2022/12/28 12:11:09;;;;;;;0.60;0.60;;;10.30;99.90;;;;;;4934099;28;20136;-88
2022/12/28 12:13:48;;;;;;;0.50;0.50;;;10.20;99.90;;;;;;4931767;28;21039;-86
2022/12/28 12:16:44;;;;;;;0.50;0.50;;;10.30;99.90;;;;;;4945513;28;20593;-83
2022/12/28 12:19:24;;;;;;;0.50;0.50;;;10.20;99.90;;;;;;4945849;28;20045;-86
2022/12/28 12:22:11;;;;;;;0.50;0.50;;;10.30;99.90;;;;;;4946298;28;20041;-88
2022/12/28 12:25:10;;;;;;;0.50;0.50;;;10.30;99.90;;;;;;4949246;28;20140;-86
2022/12/28 12:27:42;;;;;;;0.50;0.50;;;10.20;99.90;;;;;;4942606;28;20428;-86
2022/12/28 12:30:15;;;;;;;0.50;0.50;;;10.20;99.90;;;;;;4948969;28;20126;-85
2022/12/28 12:33:04;;;;;;;0.60;0.60;;;10.20;99.90;;;;;;4944214;28;20040;-85
2022/12/28 12:35:44;;;;;;;0.50;0.50;;;10.20;99.90;;;;;;4943829;28;20165;-86
2022/12/28 12:38:36;;;;;;;0.50;0.50;;;10.30;99.90;;;;;;4946794;28;20057;-87
2022/12/28 12:41:42;;;;;;;0.60;0.60;;;10.30;99.90;;;;;;4941483;28;20140;-85
2022/12/28 12:44:28;;;;;;;0.50;0.50;;;10.20;99.90;;;;;;4950864;28;20924;-86
2022/12/28 12:47:06;;;;;;;0.57;0.57;;;10.20;99.90;;;;;;4943908;28;20430;-86
2022/12/28 12:50:11;;;;;;;0.50;0.50;;;10.20;99.90;;;;;;4944331;28;20049;-85
2022/12/28 12:52:41;;;;;;;;;;;10.30;99.90;;;;;;4964359;28;20057;-85
2022/12/28 12:55:21;;;;;;;0.50;0.50;;;10.30;99.90;;;;;;4944356;28;20353;-84
2022/12/28 12:57:58;;;;;;;0.50;0.50;;;10.30;99.90;;;;;;4953167;28;20720;-83
2022/12/28 13:00:48;;;;;;;0.50;0.50;;;10.30;99.90;;;;;;4949697;28;21321;-85
2022/12/28 13:03:30;;;;;;;0.50;0.50;;;10.30;99.90;;;;;;4950484;28;20676;-84
2022/12/28 13:05:57;;;;;;;0.60;0.60;;;10.30;99.90;;;;;;4947571;28;20060;-86
2022/12/28 13:08:55;;;;;;;0.50;0.50;;;10.30;99.90;;;;;;4946191;28;20048;-85
2022/12/28 13:11:22;;;;;;;0.60;0.60;;;10.30;99.90;;;;;;4937932;28;20690;-85
2022/12/28 13:13:51;;;;;;;0.50;0.50;;;10.30;99.90;;;;;;4943170;28;20041;-85
2022/12/28 13:16:24;;;;;;;0.60;0.60;;;10.20;99.90;;;;;;4939433;28;20111;-86
2022/12/28 13:19:03;;;;;;;0.50;0.50;;;10.30;99.90;;;;;;4960799;28;20398;-85
2022/12/28 13:21:40;;;;;;;0.60;0.60;;;10.30;99.90;;;;;;4942230;28;20823;-86
2022/12/28 13:24:23;;;;;;;0.50;0.50;;;10.20;99.90;;;;;;4943076;28;20424;-86
2022/12/28 13:26:50;;;;;;;0.50;0.50;;;10.30;99.90;;;;;;4944119;28;20968;-87
2022/12/28 13:29:22;;;;;;;0.50;0.50;;;10.30;99.90;;;;;;4961729;28;20488;-86
2022/12/28 13:31:49;;;;;;;0.60;0.60;;;10.30;99.90;;;;;;4942064;28;20441;-85
2022/12/28 13:34:24;;;;;;;0.50;0.50;;;10.30;99.90;;;;;;4927281;28;20048;-85
2022/12/28 13:36:55;;;;;;;0.50;0.50;;;10.20;99.90;;;;;;4944068;28;20061;-83
2022/12/28 13:39:22;;;;;;;0.60;0.60;;;10.30;99.90;;;;;;4944718;28;20350;-86
2022/12/28 13:42:03;;;;;;;0.70;0.70;;;10.30;99.90;;;;;;4944821;28;20433;-86
2022/12/28 13:44:44;;;;;;;0.60;0.60;;;10.30;99.90;;;;;;4948042;28;20064;-85
2022/12/28 13:47:32;;;;;;;0.60;0.60;;;10.30;99.90;;;;;;4964017;28;20871;-85